Time;durP1;ratioP1;P1;durP2;ratioP2;P2;SDS_P1;SDS_P2;PMS_P1;PMS_P2;Temp;Humidity;BMP_temperature;BMP_pressure;BME280_temperature;BME280_humidity;BME280_pressure;Samples;Min_cycle;Max_cycle;Signal;HPM_P1;HPM_P2
2023/01/05 00:01:14;;;;;;;;;0.00;0.00;;;;;21.02;52.30;101778.81;5073480;27;46921;-71
2023/01/05 00:03:40;;;;;;;;;0.00;0.00;;;;;21.07;52.28;101785.66;5057612;28;52366;-70
2023/01/05 00:06:09;;;;;;;;;0.00;0.00;;;;;21.04;52.36;101782.22;5040709;28;45266;-70
2023/01/05 00:08:35;;;;;;;;;0.00;0.00;;;;;21.02;52.21;101778.81;5073115;27;45460;-71
2023/01/05 00:22:29;;;;;;;;;1.00;0.00;;;;;21.03;52.91;101783.19;5054595;28;45344;-70
2023/01/05 00:24:54;;;;;;;;;0.00;0.00;;;;;21.02;52.41;101784.13;5072001;27;45441;-70
2023/01/05 00:27:19;;;;;;;;;0.00;0.00;;;;;21.03;52.21;101782.31;5037994;28;45651;-71
2023/01/05 00:29:45;;;;;;;;;0.00;0.00;;;;;21.00;52.32;101780.69;5055831;28;45577;-70
2023/01/05 00:32:10;;;;;;;;;0.00;0.00;;;;;21.02;52.59;101783.28;5053555;28;51756;-71
2023/01/05 00:34:35;;;;;;;;;0.00;0.00;;;;;21.00;52.66;101775.38;5057914;28;64623;-70
2023/01/05 00:37:01;;;;;;;;;0.00;0.00;;;;;21.02;52.46;101773.47;5051966;28;45463;-70
2023/01/05 00:39:26;;;;;;;;;0.00;0.00;;;;;20.99;52.37;101772.78;5057368;28;50998;-71
2023/01/05 00:41:51;;;;;;;;;0.00;0.00;;;;;21.02;52.45;101781.47;5055354;28;59148;-70
2023/01/05 00:44:17;;;;;;;;;0.00;0.00;;;;;21.02;52.30;101777.94;5055479;28;65585;-71
2023/01/05 00:46:42;;;;;;;;;0.00;0.00;;;;;20.99;52.80;101780.78;5053892;28;69306;-70
2023/01/05 00:49:10;;;;;;;;;0.00;0.00;;;;;20.98;52.18;101779.03;5059835;28;53255;-71
2023/01/05 00:51:35;;;;;;;;;0.00;0.00;;;;;21.02;52.25;101796.59;5043969;28;45411;-71
2023/01/05 00:54:01;;;;;;;;;0.00;0.00;;;;;20.99;52.53;101792.28;5060041;28;61080;-71
2023/01/05 00:56:29;;;;;;;;;0.00;0.00;;;;;21.00;52.36;101791.34;5040287;28;62462;-71
2023/01/05 00:58:55;;;;;;;;;0.00;0.00;;;;;21.00;52.56;101796.66;5057480;28;54596;-72
2023/01/05 01:01:20;;;;;;;;;0.00;0.00;;;;;20.99;52.33;101794.09;5037832;28;45626;-72
2023/01/05 01:03:45;;;;;;;;;0.00;0.00;;;;;21.00;52.58;101790.47;5059311;28;47931;-71
2023/01/05 01:06:11;;;;;;;;;0.00;0.00;;;;;21.02;52.58;101794.78;5059594;28;56963;-72
2023/01/05 01:08:37;;;;;;;;;0.00;0.00;;;;;20.99;52.64;101781.63;5056935;28;45348;-71
2023/01/05 01:11:04;;;;;;;;;0.00;0.00;;;;;21.02;52.23;101783.28;5041319;28;46415;-71
2023/01/05 01:13:30;;;;;;;;;0.00;0.00;;;;;21.01;52.61;101790.38;5056925;28;47256;-71
2023/01/05 01:15:55;;;;;;;;;0.00;0.00;;;;;21.02;52.09;101786.78;5062974;28;45280;-71
2023/01/05 01:18:22;;;;;;;;;0.00;0.00;;;;;21.02;52.53;101785.94;5059817;28;45529;-71
2023/01/05 01:20:47;;;;;;;;;0.00;0.00;;;;;21.02;52.13;101788.59;5059708;28;45547;-71
2023/01/05 01:23:12;;;;;;;;;0.00;0.00;;;;;21.01;52.27;101782.41;5055931;28;62875;-71
2023/01/05 01:25:38;;;;;;;;;0.00;0.00;;;;;21.00;52.76;101782.47;5058457;28;45599;-71
2023/01/05 01:28:04;;;;;;;;;0.00;0.00;;;;;20.99;52.31;101789.59;5055558;28;45445;-71
2023/01/05 01:30:30;;;;;;;;;0.00;0.00;;;;;20.99;52.50;101778.97;5042693;28;45466;-71
2023/01/05 01:32:55;;;;;;;;;0.00;0.00;;;;;20.99;51.94;101783.44;5054824;28;64766;-71
2023/01/05 01:35:20;;;;;;;;;0.00;0.00;;;;;21.00;52.39;101785.13;5061328;28;45360;-70
2023/01/05 01:37:46;;;;;;;;;0.00;0.00;;;;;20.97;52.19;101783.50;5057224;28;45795;-71
2023/01/05 01:40:12;;;;;;;;;0.00;0.00;;;;;21.00;52.35;101785.13;5060534;28;54062;-71
2023/01/05 01:42:38;;;;;;;;;0.00;0.00;;;;;20.99;52.09;101794.94;5058608;28;47689;-71
2023/01/05 01:45:23;;;;;;;;;0.00;0.00;;;;;20.97;52.14;101791.50;5090963;27;45232;-71
2023/01/05 01:47:56;;;;;;;;;0.00;0.00;;;;;20.98;52.12;101789.69;5058761;28;45448;-71
2023/01/05 01:50:28;;;;;;;;;0.00;0.00;;;;;20.99;52.63;101794.09;5058076;28;45395;-71
2023/01/05 01:52:57;;;;;;;;;0.00;0.00;;;;;20.96;52.05;101788.91;5089294;27;46400;-71
2023/01/05 01:55:23;;;;;;;;;0.00;0.00;;;;;20.96;52.34;101795.09;5038275;28;45786;-71
2023/01/05 01:57:49;;;;;;;;;0.25;0.00;;;;;20.97;52.46;101798.63;5039104;28;59656;-71
2023/01/05 02:00:16;;;;;;;;;0.00;0.00;;;;;20.98;52.12;101795.00;5057708;28;45332;-70
2023/01/05 02:02:41;;;;;;;;;0.00;0.00;;;;;20.98;52.15;101797.66;5069332;27;45788;-71
2023/01/05 02:05:10;;;;;;;;;0.00;0.00;;;;;20.95;52.30;101788.06;5059737;28;45359;-71
2023/01/05 02:07:41;;;;;;;;;0.00;0.00;;;;;20.98;52.12;101797.66;5074394;27;45371;-71
2023/01/05 02:10:07;;;;;;;;;0.00;0.00;;;;;20.92;52.33;101784.72;5058095;28;45481;-71
2023/01/05 02:12:51;;;;;;;;;0.00;0.00;;;;;20.96;52.28;101800.41;5073795;27;47266;-71
2023/01/05 02:15:29;;;;;;;;;0.00;0.00;;;;;20.93;52.28;101792.63;5059485;28;45446;-71
2023/01/05 02:18:21;;;;;;;;;0.00;0.00;;;;;20.97;52.41;101807.47;5057898;28;45325;-71
2023/01/05 02:20:53;;;;;;;;;0.00;0.00;;;;;20.95;52.38;101801.38;5055057;28;45339;-71
2023/01/05 02:23:39;;;;;;;;;0.00;0.00;;;;;20.93;52.16;101794.41;5055166;28;47616;-71
2023/01/05 02:26:26;;;;;;;;;0.00;0.00;;;;;20.96;52.11;101810.19;5057313;28;45533;-70
2023/01/05 02:29:15;;;;;;;;;0.00;0.00;;;;;20.94;52.04;101806.78;5059613;28;45540;-71
2023/01/05 02:31:41;;;;;;;;;0.00;0.00;;;;;20.94;52.28;101810.28;5071730;27;45521;-71
2023/01/05 02:34:20;;;;;;;;;0.00;0.00;;;;;20.92;52.39;101812.16;5058794;28;45232;-71
2023/01/05 02:37:06;;;;;;;;;0.00;0.00;;;;;20.93;52.18;101816.56;5088247;27;46024;-70
2023/01/05 02:39:51;;;;;;;;;0.00;0.00;;;;;20.92;52.41;101816.63;5075804;27;45468;-70
2023/01/05 02:42:23;;;;;;;;;0.75;0.00;;;;;20.91;52.27;101809.59;5037849;28;45659;-71
2023/01/05 02:44:49;;;;;;;;;0.00;0.00;;;;;20.91;52.18;101815.78;5057647;28;45473;-71
2023/01/05 02:47:23;;;;;;;;;0.50;0.00;;;;;20.94;52.16;101817.41;5055889;28;45470;-71
2023/01/05 02:49:50;;;;;;;;;0.00;0.00;;;;;20.93;51.95;101810.34;5059382;28;45298;-73
2023/01/05 02:52:15;;;;;;;;;0.00;0.00;;;;;20.92;52.09;101809.50;5058439;28;45785;-71
2023/01/05 02:54:45;;;;;;;;;0.00;0.00;;;;;20.92;52.08;101798.88;5056575;28;67074;-71
2023/01/05 02:57:19;;;;;;;;;0.00;0.00;;;;;20.93;52.16;101811.25;5054793;28;45734;-71
2023/01/05 02:59:52;;;;;;;;;0.00;0.00;;;;;20.90;52.17;101795.44;5056406;28;45683;-72
2023/01/05 03:02:23;;;;;;;;;0.00;0.00;;;;;20.93;51.91;101802.38;5042130;28;45694;-71
2023/01/05 03:04:54;;;;;;;;;0.00;0.00;;;;;20.91;52.01;101802.47;5058750;28;46540;-71
2023/01/05 03:07:26;;;;;;;;;0.00;0.00;;;;;20.91;52.04;101797.16;5054361;28;45482;-72
2023/01/05 03:09:52;;;;;;;;;0.00;0.00;;;;;20.92;51.82;101798.88;5058755;28;46172;-71
2023/01/05 03:15:26;;;;;;;;;0.00;0.00;;;;;20.90;52.32;101806.06;5057252;28;45885;-71
2023/01/05 03:17:58;;;;;;;;;0.00;0.00;;;;;20.92;52.03;101808.66;5036753;28;45605;-71
2023/01/05 03:20:27;;;;;;;;;0.00;0.00;;;;;20.89;52.14;101803.50;5057547;28;45422;-71
2023/01/05 03:37:07;;;;;;;;;1.00;0.00;;;;;20.91;52.14;101813.13;5057141;28;45425;-71
2023/01/05 03:39:34;;;;;;;;;0.00;0.00;;;;;20.89;51.72;101807.00;5084301;27;45253;-71
2023/01/05 03:42:00;;;;;;;;;0.00;0.00;;;;;20.90;52.28;101808.72;5052566;28;45603;-70
2023/01/05 03:44:26;;;;;;;;;0.00;0.00;;;;;20.90;52.09;101813.22;5057243;28;47499;-70
2023/01/05 03:46:51;;;;;;;;;1.00;0.00;;;;;20.91;51.61;101823.78;5054015;28;50041;-70
2023/01/05 03:49:16;;;;;;;;;0.00;0.00;;;;;20.90;51.91;101826.50;5056976;28;45534;-70
2023/01/05 03:51:42;;;;;;;;;0.00;0.00;;;;;20.89;52.08;101819.47;5038327;28;45486;-70
2023/01/05 03:54:08;;;;;;;;;0.00;0.00;;;;;20.88;51.82;101820.41;5056020;28;45458;-70
2023/01/05 03:56:33;;;;;;;;;0.00;0.00;;;;;20.89;52.22;101827.44;5052188;28;46457;-70
2023/01/05 03:58:58;;;;;;;;;0.00;0.00;;;;;20.87;51.73;101816.88;5043216;28;46507;-70
2023/01/05 04:01:24;;;;;;;;;0.00;0.00;;;;;20.88;51.82;101823.06;5072534;28;45575;-70
2023/01/05 04:03:49;;;;;;;;;0.00;0.00;;;;;20.89;51.57;101819.47;5054085;28;62167;-70
2023/01/05 04:06:15;;;;;;;;;0.00;0.00;;;;;20.88;51.46;101826.59;5056085;28;55507;-70
2023/01/05 04:08:40;;;;;;;;;0.00;0.00;;;;;20.86;51.54;101815.16;5086397;27;45272;-71
2023/01/05 04:11:15;;;;;;;;;0.00;0.00;;;;;20.90;51.68;101816.72;5057054;28;45450;-70
2023/01/05 04:13:41;;;;;;;;;0.00;0.00;;;;;20.84;51.96;101807.25;5053050;28;45483;-71
2023/01/05 04:16:06;;;;;;;;;0.00;0.00;;;;;20.89;52.08;101814.13;5056525;28;45506;-70
2023/01/05 04:18:32;;;;;;;;;0.00;0.00;;;;;20.89;51.69;101814.13;5053877;28;45175;-70
2023/01/05 04:20:57;;;;;;;;;0.00;0.00;;;;;20.87;52.01;101814.22;5056216;28;45572;-70
2023/01/05 04:23:22;;;;;;;;;0.00;0.00;;;;;20.90;51.76;101821.19;5037190;28;57589;-71
2023/01/05 04:25:48;;;;;;;;;0.00;0.00;;;;;20.89;51.89;101812.31;5057735;28;47646;-71
2023/01/05 04:28:13;;;;;;;;;0.00;0.00;;;;;20.89;51.77;101814.97;5036208;28;45507;-71
2023/01/05 04:30:38;;;;;;;;;0.00;0.00;;;;;20.89;51.86;101816.78;5056354;28;45723;-70
2023/01/05 04:33:04;;;;;;;;;0.00;0.00;;;;;20.88;51.76;101807.97;5056851;28;51570;-71
2023/01/05 04:35:29;;;;;;;;;0.00;0.00;;;;;20.89;51.66;101827.44;5057018;28;45594;-70
2023/01/05 04:37:54;;;;;;;;;0.00;0.00;;;;;20.89;52.01;101817.66;5038363;28;45404;-70
2023/01/05 04:40:20;;;;;;;;;0.00;0.00;;;;;20.87;51.92;101824.84;5058311;28;45235;-70
2023/01/05 04:42:46;;;;;;;;;0.00;0.00;;;;;20.88;51.54;101823.06;5052818;28;54595;-70
2023/01/05 04:45:11;;;;;;;;;0.00;0.00;;;;;20.84;51.64;101815.25;5041930;28;47046;-70
2023/01/05 04:47:37;;;;;;;;;0.00;0.00;;;;;20.88;52.02;101820.41;5053937;28;57334;-70
2023/01/05 04:50:03;;;;;;;;;1.00;0.00;;;;;20.88;51.94;101817.75;5056555;28;58595;-70
2023/01/05 04:52:28;;;;;;;;;0.00;0.00;;;;;20.86;51.94;101815.16;5051795;28;46070;-70
2023/01/05 04:54:53;;;;;;;;;0.00;0.00;;;;;20.86;51.49;101821.34;5058490;28;61504;-70
2023/01/05 04:57:19;;;;;;;;;0.00;0.00;;;;;20.86;51.95;101817.84;5056880;28;56073;-70
2023/01/05 04:59:44;;;;;;;;;0.00;0.00;;;;;20.88;51.51;101815.09;5040083;28;45502;-71
2023/01/05 05:02:10;;;;;;;;;0.00;0.00;;;;;20.86;51.86;101813.38;5052887;28;60343;-71
2023/01/05 05:04:36;;;;;;;;;0.00;0.00;;;;;20.83;51.65;101805.53;5073199;27;46431;-71
2023/01/05 05:07:01;;;;;;;;;0.00;0.00;;;;;20.86;51.51;101810.69;5041105;28;58628;-70
2023/01/05 05:09:26;;;;;;;;;0.00;0.00;;;;;20.79;51.87;101798.66;5056509;28;55405;-71
2023/01/05 05:11:52;;;;;;;;;0.00;0.00;;;;;20.85;52.13;101811.63;5054139;28;45352;-70
2023/01/05 05:14:17;;;;;;;;;0.00;0.00;;;;;20.85;52.04;101803.66;5056037;28;64432;-71
2023/01/05 05:16:42;;;;;;;;;0.00;0.00;;;;;20.87;51.69;101811.56;5055141;28;58441;-74
2023/01/05 05:19:09;;;;;;;;;0.00;0.00;;;;;20.84;51.49;101804.59;5058107;28;45517;-73
2023/01/05 05:21:34;;;;;;;;;1.00;0.00;;;;;20.81;51.60;101803.91;5051107;28;45489;-71
2023/01/05 05:24:00;;;;;;;;;0.00;0.00;;;;;20.85;51.96;101808.97;5056427;28;46306;-71
2023/01/05 05:26:25;;;;;;;;;0.00;0.00;;;;;20.86;51.59;101813.38;5056909;28;45258;-71
2023/01/05 05:28:51;;;;;;;;;0.00;0.00;;;;;20.86;51.91;101812.50;5039634;28;45467;-71
2023/01/05 05:31:16;;;;;;;;;0.00;0.00;;;;;20.84;51.88;101817.91;5036178;28;51957;-71
2023/01/05 05:33:41;;;;;;;;;0.00;0.00;;;;;20.82;51.61;101802.94;5038413;28;57459;-71
2023/01/05 05:36:07;;;;;;;;;0.00;0.00;;;;;20.82;51.55;101803.84;5042058;28;45416;-71
2023/01/05 05:38:32;;;;;;;;;0.00;0.00;;;;;20.84;51.35;101817.03;5058917;28;45313;-71
2023/01/05 05:40:58;;;;;;;;;1.00;0.00;;;;;20.83;51.88;101813.50;5061269;28;45320;-71
2023/01/05 05:43:23;;;;;;;;;0.00;0.00;;;;;20.85;51.90;101813.44;5058112;28;58408;-71
2023/01/05 05:45:48;;;;;;;;;0.00;0.00;;;;;20.83;51.56;101816.19;5059919;28;45671;-73
2023/01/05 05:48:15;;;;;;;;;0.00;0.00;;;;;20.82;51.69;101811.81;5059401;28;45438;-73
2023/01/05 05:50:40;;;;;;;;;0.00;0.00;;;;;20.84;51.39;101817.91;5060829;28;45530;-71
2023/01/05 05:53:05;;;;;;;;;0.00;0.00;;;;;20.84;51.84;101814.38;5041578;28;65172;-71
2023/01/05 05:55:32;;;;;;;;;0.00;0.00;;;;;20.84;51.76;101817.03;5091518;27;45445;-71
2023/01/05 05:57:57;;;;;;;;;0.00;0.00;;;;;20.80;51.87;101820.81;5040911;28;45537;-71
2023/01/05 06:00:22;;;;;;;;;0.00;0.00;;;;;20.83;51.44;101823.31;5058984;28;59169;-70
2023/01/05 06:02:48;;;;;;;;;0.00;0.00;;;;;20.82;51.53;101833.09;5057822;28;60594;-71
2023/01/05 06:05:13;;;;;;;;;0.00;0.00;;;;;20.83;51.81;101833.94;5041336;28;45270;-71
2023/01/05 06:07:38;;;;;;;;;0.00;0.00;;;;;20.80;51.61;101831.44;5055331;28;66800;-74
2023/01/05 06:10:04;;;;;;;;;0.00;0.00;;;;;20.80;51.69;101836.75;5062409;28;49510;-74
2023/01/05 06:12:29;;;;;;;;;0.00;0.00;;;;;20.83;52.00;101839.28;5060024;28;45573;-74
2023/01/05 06:14:55;;;;;;;;;0.00;0.00;;;;;20.79;51.41;101843.03;5093769;27;45252;-72
2023/01/05 06:17:21;;;;;;;;;2.00;0.00;;;;;20.82;51.83;101848.19;5051080;28;58705;-71
2023/01/05 06:19:46;;;;;;;;;0.00;0.00;;;;;20.82;51.85;101849.06;5060289;28;45548;-72
2023/01/05 06:22:11;;;;;;;;;0.00;0.00;;;;;20.80;51.52;101845.59;5040383;28;55435;-71
2023/01/05 06:24:37;;;;;;;;;0.00;0.00;;;;;20.81;51.63;101847.34;5042493;28;61277;-71
2023/01/05 06:27:02;;;;;;;;;0.00;0.00;;;;;20.81;51.61;101859.78;5058347;28;52523;-71
2023/01/05 06:29:27;;;;;;;;;0.00;0.00;;;;;20.80;51.68;101856.25;5060220;28;45517;-71
2023/01/05 06:31:53;;;;;;;;;0.00;0.00;;;;;20.78;51.45;101846.63;5072878;27;66738;-71
2023/01/05 06:34:18;;;;;;;;;0.00;0.00;;;;;20.80;51.67;101866.88;5088811;27;45418;-71
2023/01/05 06:36:43;;;;;;;;;0.00;0.00;;;;;20.82;51.86;101864.16;5058789;28;45311;-72
2023/01/05 06:39:09;;;;;;;;;0.00;0.00;;;;;20.80;51.64;101863.38;5060867;28;45446;-73
2023/01/05 06:41:34;;;;;;;;;0.00;0.00;;;;;20.79;51.47;101859.84;5056148;28;65405;-73
2023/01/05 06:44:00;;;;;;;;;0.00;0.00;;;;;20.79;51.54;101862.53;5058990;28;49718;-71
2023/01/05 06:46:26;;;;;;;;;0.00;0.00;;;;;20.77;51.49;101859.09;5063348;28;45502;-70
2023/01/05 06:48:51;;;;;;;;;0.00;0.00;;;;;20.80;51.31;101866.88;5045119;28;45810;-70
2023/01/05 06:51:17;;;;;;;;;0.00;0.00;;;;;20.80;51.86;101860.72;5041923;28;47416;-71
2023/01/05 06:53:42;;;;;;;;;0.00;0.00;;;;;20.81;51.84;101870.44;5056335;28;45467;-71
2023/01/05 06:56:07;;;;;;;;;0.00;0.00;;;;;20.81;51.54;101860.63;5060487;28;45475;-71
2023/01/05 06:58:33;;;;;;;;;0.00;0.00;;;;;20.82;51.70;101869.47;5055691;28;45439;-71
2023/01/05 07:00:58;;;;;;;;;0.00;0.00;;;;;20.83;51.58;101873.84;5058125;28;55261;-72
2023/01/05 07:03:23;;;;;;;;;0.00;0.00;;;;;20.79;51.29;101861.66;5038991;28;45331;-71
2023/01/05 07:05:50;;;;;;;;;0.00;0.00;;;;;20.83;51.84;101866.72;5060897;28;45691;-72
2023/01/05 07:08:15;;;;;;;;;0.00;0.00;;;;;20.82;51.30;101864.16;5057816;28;45384;-71
2023/01/05 07:10:40;;;;;;;;;0.00;0.00;;;;;20.80;51.83;101868.69;5059457;28;45418;-75
2023/01/05 07:13:06;;;;;;;;;0.25;0.00;;;;;20.83;51.45;101873.84;5059929;28;45603;-75
2023/01/05 07:15:31;;;;;;;;;0.00;0.00;;;;;20.83;51.93;101877.38;5060395;28;57218;-71
2023/01/05 07:17:56;;;;;;;;;0.75;0.00;;;;;20.83;51.71;101877.38;5054858;28;45736;-70
2023/01/05 07:20:22;;;;;;;;;0.75;0.00;;;;;20.84;52.00;101873.78;5060442;28;46211;-71
2023/01/05 07:22:47;;;;;;;;;0.00;0.00;;;;;20.85;52.06;101879.97;5039236;28;45783;-72
2023/01/05 07:25:12;;;;;;;;;0.00;0.00;;;;;20.83;51.75;101879.19;5060704;28;45326;-72
2023/01/05 07:27:38;;;;;;;;;0.00;0.00;;;;;20.86;51.92;101882.53;5053218;28;67107;-72
2023/01/05 07:30:04;;;;;;;;;0.00;0.00;;;;;20.85;52.14;101885.28;5074620;27;47928;-73
2023/01/05 07:32:29;;;;;;;;;0.00;0.00;;;;;20.83;52.18;101876.53;5050668;28;45435;-73
2023/01/05 07:34:54;;;;;;;;;0.00;0.00;;;;;20.84;51.92;101878.22;5056324;28;57179;-73
2023/01/05 07:37:20;;;;;;;;;0.00;0.00;;;;;20.83;52.33;101873.84;5075362;27;45658;-72
2023/01/05 07:39:45;;;;;;;;;0.50;0.00;;;;;20.85;52.25;101874.63;5095821;27;46254;-72
2023/01/05 07:42:10;;;;;;;;;0.00;0.00;;;;;20.81;52.14;101879.25;5057528;28;45628;-73
2023/01/05 07:44:36;;;;;;;;;0.00;0.00;;;;;20.85;52.51;101875.50;5058977;28;60051;-71
2023/01/05 07:47:02;;;;;;;;;1.00;0.00;;;;;20.87;52.30;101888.72;5058497;28;45802;-73
2023/01/05 07:49:28;;;;;;;;;0.00;0.00;;;;;20.86;52.97;101895.00;5059164;28;45983;-70
2023/01/05 07:51:53;;;;;;;;;0.00;0.00;;;;;20.86;52.75;101882.53;5037826;28;45334;-71
2023/01/05 07:54:20;;;;;;;;;1.00;0.00;;;;;20.86;53.09;101887.88;5055896;28;45496;-71
2023/01/05 07:56:45;;;;;;;;;0.00;0.00;;;;;20.89;52.92;101885.97;5052539;28;45385;-74
2023/01/05 07:59:11;;;;;;;;;0.00;0.00;;;;;20.86;53.25;101887.88;5059137;28;46135;-70
2023/01/05 08:01:36;;;;;;;;;1.50;0.00;;;;;20.88;53.08;101885.13;5055036;28;61397;-71
2023/01/05 08:04:01;;;;;;;;;0.25;0.00;;;;;20.90;53.37;101883.25;5039747;28;45252;-72
2023/01/05 08:06:27;;;;;;;;;0.50;0.00;;;;;20.93;53.13;101887.53;5057195;28;58105;-71
2023/01/05 08:08:52;;;;;;;;;1.00;0.00;;;;;20.91;53.38;101886.75;5039555;28;60446;-71
2023/01/05 08:11:19;;;;;;;;;0.00;0.00;;;;;20.94;53.21;101895.44;5055586;28;45280;-71
2023/01/05 08:14:01;;;;;;;;;1.00;0.00;;;;;20.93;53.50;101893.72;5057144;28;45450;-71
2023/01/05 08:16:31;;;;;;;;;0.00;0.00;;;;;20.94;53.61;101898.09;5039217;28;45953;-73
2023/01/05 08:18:57;;;;;;;;;0.00;0.00;;;;;20.92;53.21;101901.78;5058347;28;45477;-74
2023/01/05 08:21:23;;;;;;;;;0.00;0.00;;;;;20.88;53.58;101892.25;5058612;28;45308;-73
2023/01/05 08:23:49;;;;;;;;;0.00;0.00;;;;;20.93;53.67;101901.72;5054994;28;50568;-73
2023/01/05 08:26:21;;;;;;;;;0.00;0.00;;;;;20.93;53.36;101900.84;5081949;27;45239;-73
2023/01/05 08:28:46;;;;;;;;;0.00;0.00;;;;;20.86;53.42;101897.66;5068208;28;45592;-74
2023/01/05 08:31:15;;;;;;;;;0.00;0.00;;;;;20.91;53.45;101894.75;5085765;27;54534;-76
2023/01/05 08:33:40;;;;;;;;;1.00;0.00;;;;;20.92;53.38;101901.78;5091556;27;45342;-73
2023/01/05 08:36:11;;;;;;;;;0.00;0.00;;;;;20.91;53.72;101906.25;5057969;28;45295;-73
2023/01/05 08:38:36;;;;;;;;;0.75;0.00;;;;;20.92;53.69;101899.13;5035549;28;47248;-73
2023/01/05 08:41:02;;;;;;;;;0.00;0.00;;;;;20.92;53.54;101899.13;5054702;28;45436;-78
2023/01/05 08:43:27;;;;;;;;;0.00;0.00;;;;;20.91;53.83;101902.72;5056826;28;45385;-75
2023/01/05 08:45:53;;;;;;;;;1.50;0.00;;;;;20.91;53.58;101898.28;5056396;28;45391;-73
2023/01/05 08:48:18;;;;;;;;;0.25;0.00;;;;;20.93;53.37;101895.50;5053889;28;46070;-74
2023/01/05 08:50:44;;;;;;;;;0.00;0.00;;;;;20.96;53.49;101898.03;5057601;28;50871;-74
2023/01/05 08:53:09;;;;;;;;;0.00;0.00;;;;;20.94;53.56;101900.75;5031751;28;57555;-74
2023/01/05 08:55:35;;;;;;;;;0.25;0.00;;;;;20.96;53.54;101901.53;5071441;28;45360;-74
2023/01/05 08:58:00;;;;;;;;;0.00;0.00;;;;;20.98;53.04;101907.66;5036488;28;55881;-74
2023/01/05 09:00:26;;;;;;;;;2.25;0.00;;;;;20.94;53.44;101900.75;5091855;27;45453;-74
2023/01/05 09:02:51;;;;;;;;;0.75;0.00;;;;;20.97;52.94;101903.28;5038469;28;45272;-74
2023/01/05 09:05:16;;;;;;;;;0.75;0.00;;;;;20.97;52.97;101903.28;5057891;28;55465;-71
2023/01/05 09:07:43;;;;;;;;;1.00;0.00;;;;;20.97;53.33;101907.75;5057459;28;46048;-71
2023/01/05 09:10:09;;;;;;;;;0.00;0.00;;;;;20.98;52.88;101896.13;5061607;28;45279;-71
2023/01/05 09:12:35;;;;;;;;;1.00;0.00;;;;;20.95;52.83;101899.84;5056815;28;45415;-74
2023/01/05 09:15:00;;;;;;;;;0.00;0.00;;;;;20.96;52.87;101898.03;5076086;27;45414;-74
2023/01/05 09:17:26;;;;;;;;;0.00;0.00;;;;;20.99;53.24;101903.19;5061130;28;45433;-74
2023/01/05 09:19:51;;;;;;;;;0.00;0.00;;;;;20.94;53.02;101895.44;5044472;28;45313;-74
2023/01/05 09:22:17;;;;;;;;;1.00;0.00;;;;;20.97;52.76;101899.75;5046370;28;59205;-74
2023/01/05 09:24:42;;;;;;;;;1.00;0.00;;;;;20.97;52.93;101899.75;5058779;28;45398;-74
2023/01/05 09:27:08;;;;;;;;;0.00;0.00;;;;;20.96;52.78;101906.84;5055819;28;47983;-74
2023/01/05 09:29:33;;;;;;;;;0.00;0.00;;;;;20.91;52.68;101895.63;5059857;28;64477;-71
2023/01/05 09:31:59;;;;;;;;;0.00;0.00;;;;;20.96;52.63;101903.34;5056155;28;59260;-71
2023/01/05 09:34:24;;;;;;;;;1.00;0.00;;;;;20.94;53.06;101907.88;5062714;28;45469;-71
2023/01/05 09:36:50;;;;;;;;;1.00;0.00;;;;;20.94;52.64;101910.56;5040470;28;48277;-71
2023/01/05 09:39:15;;;;;;;;;0.00;0.00;;;;;20.92;52.41;101901.78;5043621;28;62277;-71
2023/01/05 09:41:46;;;;;;;;;0.00;0.00;;;;;20.95;52.70;101909.63;5059196;28;47857;-74
2023/01/05 09:44:24;;;;;;;;;0.50;0.00;;;;;20.95;52.63;101918.47;5043020;28;45441;-74
2023/01/05 09:46:50;;;;;;;;;2.00;0.00;;;;;20.93;52.80;101915.03;5055263;28;48766;-74
2023/01/05 09:49:22;;;;;;;;;0.00;0.00;;;;;20.95;52.46;101914.94;5060531;28;45367;-74
2023/01/05 09:51:49;;;;;;;;;0.00;0.00;;;;;20.91;52.43;101913.38;5090895;27;45379;-74
2023/01/05 09:54:16;;;;;;;;;0.00;0.00;;;;;20.94;52.71;101921.19;5086463;27;45350;-74
2023/01/05 09:56:45;;;;;;;;;1.00;0.00;;;;;20.92;52.30;101918.59;5057219;28;45693;-74
2023/01/05 09:59:27;;;;;;;;;0.00;0.00;;;;;20.92;52.63;101917.75;5075559;28;45350;-74
2023/01/05 10:01:55;;;;;;;;;0.25;0.00;;;;;20.93;52.21;101927.44;5075163;27;45550;-74
2023/01/05 10:04:22;;;;;;;;;0.00;0.00;;;;;20.91;52.52;101916.91;5060718;28;45596;-74
2023/01/05 10:06:53;;;;;;;;;1.00;0.00;;;;;20.93;52.37;101928.31;5059487;28;47037;-74
2023/01/05 10:09:21;;;;;;;;;1.00;0.00;;;;;20.93;52.23;101927.44;5060364;28;45947;-74
2023/01/05 10:14:44;;;;;;;;;2.00;0.00;;;;;20.90;52.44;101938.28;5065999;28;45427;-74
2023/01/05 10:17:16;;;;;;;;;0.00;0.00;;;;;20.91;52.52;101932.88;5056694;28;45402;-74
2023/01/05 10:19:41;;;;;;;;;0.00;0.00;;;;;20.91;52.20;101934.66;5059623;28;45640;-74
2023/01/05 10:22:40;;;;;;;;;1.00;0.00;;;;;20.91;52.28;101938.19;5044040;28;45379;-74
2023/01/05 10:25:15;;;;;;;;;0.00;0.00;;;;;20.91;51.81;101934.66;5059776;28;45537;-74
2023/01/05 10:27:49;;;;;;;;;0.50;0.50;;;;;20.89;51.95;101934.72;5038554;28;46058;-74
2023/01/05 10:30:26;;;;;;;;;0.00;0.00;;;;;20.90;51.97;101928.47;5060542;28;45316;-74
2023/01/05 10:32:59;;;;;;;;;0.00;0.00;;;;;20.86;52.21;101924.25;5056814;28;45254;-74
2023/01/05 10:35:31;;;;;;;;;0.00;0.00;;;;;20.91;52.20;101926.66;5043500;28;45501;-74
2023/01/05 10:38:04;;;;;;;;;1.00;0.00;;;;;20.91;52.25;101922.22;5070963;27;47130;-74
2023/01/05 10:40:36;;;;;;;;;1.00;0.00;;;;;20.90;51.76;101924.97;5042523;28;45346;-74
2023/01/05 10:43:19;;;;;;;;;0.00;0.00;;;;;20.90;52.18;101928.47;5056199;28;45583;-74
2023/01/05 10:45:44;;;;;;;;;0.00;0.00;;;;;20.85;51.68;101918.06;5057784;28;45540;-74
2023/01/05 10:48:15;;;;;;;;;0.25;0.00;;;;;20.87;52.14;101920.66;5055845;28;47034;-74
2023/01/05 10:50:42;;;;;;;;;0.50;0.00;;;;;20.89;52.12;101931.22;5068967;28;45787;-74
2023/01/05 10:53:17;;;;;;;;;0.00;0.00;;;;;20.89;51.52;101915.25;5055185;28;45408;-74
2023/01/05 10:55:50;;;;;;;;;0.75;0.00;;;;;20.88;51.60;101914.41;5058439;28;45368;-74
2023/01/05 10:58:22;;;;;;;;;0.00;0.00;;;;;20.89;51.68;101909.94;5056618;28;47975;-74
2023/01/05 11:00:49;;;;;;;;;0.00;0.00;;;;;20.85;51.43;101901.25;5042684;28;45375;-74
2023/01/05 11:03:16;;;;;;;;;1.00;0.00;;;;;20.84;51.67;101896.84;5038517;28;45284;-74
2023/01/05 11:05:46;;;;;;;;;1.75;0.00;;;;;20.88;51.92;101905.56;5041692;28;45305;-74
2023/01/05 11:08:26;;;;;;;;;0.00;0.00;;;;;20.86;51.70;101898.50;5039199;28;47222;-74
2023/01/05 11:11:03;;;;;;;;;0.00;0.00;;;;;20.83;51.93;101885.34;5089896;27;45280;-74
2023/01/05 11:13:34;;;;;;;;;1.00;0.00;;;;;20.82;51.43;101881.00;5058648;28;45542;-74
2023/01/05 11:16:20;;;;;;;;;0.00;0.00;;;;;20.83;51.46;101877.38;5058881;28;45454;-74
2023/01/05 11:18:54;;;;;;;;;0.00;0.00;;;;;20.83;51.64;101874.72;5055741;28;47861;-74
2023/01/05 11:21:44;;;;;;;;;0.00;0.00;;;;;20.82;51.70;101870.34;5074279;27;45845;-74
2023/01/05 11:24:31;;;;;;;;;0.25;0.00;;;;;20.85;51.68;101872.81;5049593;28;45464;-73
2023/01/05 11:27:02;;;;;;;;;0.00;0.00;;;;;20.84;51.54;101872.91;5088267;27;45518;-74
2023/01/05 11:29:29;;;;;;;;;0.00;0.00;;;;;20.83;51.82;101868.53;5042241;28;47145;-74
2023/01/05 11:31:59;;;;;;;;;0.00;0.00;;;;;20.83;51.54;101874.72;5054484;28;45527;-74
2023/01/05 11:34:47;;;;;;;;;1.00;0.00;;;;;20.84;51.75;101873.78;5057747;28;45395;-74
2023/01/05 11:37:25;;;;;;;;;0.00;0.00;;;;;20.84;51.67;101870.25;5046526;28;45425;-74
2023/01/05 11:40:03;;;;;;;;;0.50;0.00;;;;;20.81;51.61;101868.63;5093292;27;45201;-74
2023/01/05 11:42:35;;;;;;;;;0.00;0.00;;;;;20.82;51.39;101864.16;5039289;28;45468;-74
2023/01/05 11:45:01;;;;;;;;;0.00;0.00;;;;;20.83;51.66;101868.53;5057971;28;45302;-74
2023/01/05 11:47:35;;;;;;;;;0.00;0.00;;;;;20.82;51.50;101865.03;5054913;28;45656;-74
2023/01/05 11:50:02;;;;;;;;;0.00;0.00;;;;;20.83;51.27;101863.22;5063361;28;45390;-74
2023/01/05 11:52:34;;;;;;;;;0.75;0.00;;;;;20.78;51.29;101854.63;5053846;28;45584;-74
2023/01/05 11:55:22;;;;;;;;;0.00;0.00;;;;;20.82;51.63;101858.81;5042481;28;45268;-74
2023/01/05 11:57:49;;;;;;;;;0.00;0.00;;;;;20.81;51.55;101862.44;5084330;27;45710;-74
2023/01/05 12:00:32;;;;;;;;;0.00;0.00;;;;;20.81;51.37;101855.31;5042027;28;48184;-71